sensor_id;sensor_type;location;lat;lon;timestamp;pressure;altitude;pressure_sealevel;temperature;humidity
64294;BME280;50636;45.596;5.258;2023-02-14T00:01:50;100449.53;;;6.79;55.10
64294;BME280;50636;45.596;5.258;2023-02-14T00:04:18;100452.22;;;6.99;55.04
64294;BME280;50636;45.596;5.258;2023-02-14T00:06:45;100446.19;;;7.18;54.68
64294;BME280;50636;45.596;5.258;2023-02-14T00:09:15;100442.91;;;7.16;53.48
64294;BME280;50636;45.596;5.258;2023-02-14T00:11:44;100440.25;;;7.06;53.69
64294;BME280;50636;45.596;5.258;2023-02-14T00:14:12;100434.91;;;7.08;54.39
64294;BME280;50636;45.596;5.258;2023-02-14T00:17:10;100429.16;;;7.24;54.66
64294;BME280;50636;45.596;5.258;2023-02-14T00:19:53;100431.81;;;7.43;53.87
64294;BME280;50636;45.596;5.258;2023-02-14T00:22:34;100427.94;;;7.37;53.05
64294;BME280;50636;45.596;5.258;2023-02-14T00:25:00;100430.84;;;7.25;52.99
64294;BME280;50636;45.596;5.258;2023-02-14T00:27:33;100422.69;;;6.98;53.22
64294;BME280;50636;45.596;5.258;2023-02-14T00:30:11;100417.13;;;6.82;53.79
64294;BME280;50636;45.596;5.258;2023-02-14T00:32:45;100415.72;;;6.68;53.63
64294;BME280;50636;45.596;5.258;2023-02-14T00:35:18;100423.13;;;6.63;54.95
64294;BME280;50636;45.596;5.258;2023-02-14T00:37:46;100418.19;;;6.70;55.10
64294;BME280;50636;45.596;5.258;2023-02-14T00:40:14;100410.88;;;6.64;55.14
64294;BME280;50636;45.596;5.258;2023-02-14T00:42:53;100422.25;;;6.53;55.17
64294;BME280;50636;45.596;5.258;2023-02-14T00:45:37;100412.91;;;6.50;55.76
64294;BME280;50636;45.596;5.258;2023-02-14T00:48:10;100412.88;;;6.40;55.22
64294;BME280;50636;45.596;5.258;2023-02-14T00:50:42;100409.97;;;6.34;55.79
64294;BME280;50636;45.596;5.258;2023-02-14T00:53:10;100407.44;;;6.23;55.49
64294;BME280;50636;45.596;5.258;2023-02-14T00:55:40;100409.06;;;6.24;55.75
64294;BME280;50636;45.596;5.258;2023-02-14T00:58:15;100404.31;;;6.29;56.97
64294;BME280;50636;45.596;5.258;2023-02-14T01:00:57;100403.09;;;6.33;56.09
64294;BME280;50636;45.596;5.258;2023-02-14T01:03:37;100405.81;;;6.31;56.09
64294;BME280;50636;45.596;5.258;2023-02-14T01:06:14;100401.13;;;6.25;56.99
64294;BME280;50636;45.596;5.258;2023-02-14T01:08:59;100407.59;;;6.31;56.80
64294;BME280;50636;45.596;5.258;2023-02-14T01:11:31;100409.97;;;6.34;56.43
64294;BME280;50636;45.596;5.258;2023-02-14T01:14:01;100405.69;;;6.33;56.05
64294;BME280;50636;45.596;5.258;2023-02-14T01:16:30;100406.22;;;6.27;55.50
64294;BME280;50636;45.596;5.258;2023-02-14T01:19:05;100405.22;;;6.18;56.26
64294;BME280;50636;45.596;5.258;2023-02-14T01:21:41;100410.03;;;6.23;56.88
64294;BME280;50636;45.596;5.258;2023-02-14T01:24:13;100407.25;;;6.45;56.83
64294;BME280;50636;45.596;5.258;2023-02-14T01:26:42;100401.63;;;6.50;55.76
64294;BME280;50636;45.596;5.258;2023-02-14T01:29:19;100407.22;;;6.35;55.38
64294;BME280;50636;45.596;5.258;2023-02-14T01:31:58;100410.28;;;6.19;55.31
64294;BME280;50636;45.596;5.258;2023-02-14T01:34:45;100410.38;;;6.08;55.89
64294;BME280;50636;45.596;5.258;2023-02-14T01:37:25;100409.56;;;6.08;56.07
64294;BME280;50636;45.596;5.258;2023-02-14T01:39:54;100406.09;;;6.07;55.80
64294;BME280;50636;45.596;5.258;2023-02-14T01:42:32;100408.53;;;5.99;55.73
64294;BME280;50636;45.596;5.258;2023-02-14T01:48:09;100414.41;;;5.80;56.19
64294;BME280;50636;45.596;5.258;2023-02-14T01:50:48;100408.25;;;5.81;56.12
64294;BME280;50636;45.596;5.258;2023-02-14T01:53:35;100397.66;;;5.94;57.42
64294;BME280;50636;45.596;5.258;2023-02-14T01:56:26;100403.94;;;6.12;57.30
64294;BME280;50636;45.596;5.258;2023-02-14T01:59:21;100399.94;;;6.08;56.58
64294;BME280;50636;45.596;5.258;2023-02-14T02:01:49;100405.09;;;5.98;57.50
64294;BME280;50636;45.596;5.258;2023-02-14T02:04:52;100400.50;;;5.91;57.35
64294;BME280;50636;45.596;5.258;2023-02-14T02:08:01;100407.63;;;5.89;57.07
64294;BME280;50636;45.596;5.258;2023-02-14T02:10:39;100406.97;;;5.75;57.75
64294;BME280;50636;45.596;5.258;2023-02-14T02:13:19;100405.13;;;5.87;58.09
64294;BME280;50636;45.596;5.258;2023-02-14T02:47:43;100392.91;;;5.99;56.85
64294;BME280;50636;45.596;5.258;2023-02-14T02:50:42;100385.13;;;5.88;57.60
64294;BME280;50636;45.596;5.258;2023-02-14T02:54:12;100387.22;;;5.94;58.45
64294;BME280;50636;45.596;5.258;2023-02-14T02:56:53;100386.34;;;6.05;57.46
64294;BME280;50636;45.596;5.258;2023-02-14T03:00:05;100375.69;;;6.17;56.87
64294;BME280;50636;45.596;5.258;2023-02-14T03:02:49;100371.47;;;6.16;57.08
64294;BME280;50636;45.596;5.258;2023-02-14T03:05:56;100375.19;;;6.24;56.99
64294;BME280;50636;45.596;5.258;2023-02-14T03:08:36;100374.16;;;6.36;56.91
64294;BME280;50636;45.596;5.258;2023-02-14T03:11:21;100371.88;;;6.52;56.28
64294;BME280;50636;45.596;5.258;2023-02-14T03:17:40;100371.41;;;6.88;55.11
64294;BME280;50636;45.596;5.258;2023-02-14T03:23:44;100374.22;;;6.25;55.05
64294;BME280;50636;45.596;5.258;2023-02-14T03:32:53;100378.19;;;6.59;55.25
64294;BME280;50636;45.596;5.258;2023-02-14T03:36:15;100380.28;;;6.66;55.37
64294;BME280;50636;45.596;5.258;2023-02-14T03:42:49;100373.97;;;6.58;54.44
64294;BME280;50636;45.596;5.258;2023-02-14T03:48:53;100373.31;;;6.66;53.99
64294;BME280;50636;45.596;5.258;2023-02-14T03:51:27;100374.22;;;6.55;54.60
64294;BME280;50636;45.596;5.258;2023-02-14T03:54:17;100377.59;;;6.36;55.03
64294;BME280;50636;45.596;5.258;2023-02-14T03:57:04;100384.13;;;6.31;55.29
64294;BME280;50636;45.596;5.258;2023-02-14T03:59:52;100376.06;;;6.34;55.00
64294;BME280;50636;45.596;5.258;2023-02-14T04:02:40;100373.53;;;6.23;55.19
64294;BME280;50636;45.596;5.258;2023-02-14T04:05:28;100377.84;;;6.03;55.03
64294;BME280;50636;45.596;5.258;2023-02-14T04:08:03;100376.91;;;5.71;55.30
64294;BME280;50636;45.596;5.258;2023-02-14T04:10:43;100376.34;;;5.47;55.75
64294;BME280;50636;45.596;5.258;2023-02-14T04:13:17;100379.00;;;5.35;56.56
64294;BME280;50636;45.596;5.258;2023-02-14T04:16:03;100372.91;;;5.25;56.61
64294;BME280;50636;45.596;5.258;2023-02-14T04:18:41;100370.41;;;5.24;56.33
64294;BME280;50636;45.596;5.258;2023-02-14T04:21:25;100364.44;;;5.33;57.74
64294;BME280;50636;45.596;5.258;2023-02-14T04:24:12;100365.53;;;5.51;57.08
64294;BME280;50636;45.596;5.258;2023-02-14T04:26:56;100361.38;;;5.60;56.27
64294;BME280;50636;45.596;5.258;2023-02-14T04:30:02;100367.94;;;5.43;56.40
64294;BME280;50636;45.596;5.258;2023-02-14T04:32:35;100369.09;;;5.29;56.78
64294;BME280;50636;45.596;5.258;2023-02-14T04:35:15;100361.75;;;5.23;56.93
64294;BME280;50636;45.596;5.258;2023-02-14T04:37:57;100366.03;;;5.24;57.47
64294;BME280;50636;45.596;5.258;2023-02-14T04:40:36;100362.34;;;5.27;57.03
64294;BME280;50636;45.596;5.258;2023-02-14T04:43:17;100361.84;;;5.33;56.88
64294;BME280;50636;45.596;5.258;2023-02-14T04:45:50;100358.53;;;5.31;56.15
64294;BME280;50636;45.596;5.258;2023-02-14T04:48:26;100361.44;;;5.16;56.90
64294;BME280;50636;45.596;5.258;2023-02-14T04:51:05;100354.72;;;5.03;57.21
64294;BME280;50636;45.596;5.258;2023-02-14T04:53:48;100356.97;;;5.07;58.04
64294;BME280;50636;45.596;5.258;2023-02-14T04:56:35;100353.38;;;5.19;58.01
64294;BME280;50636;45.596;5.258;2023-02-14T04:59:12;100351.56;;;5.31;58.54
64294;BME280;50636;45.596;5.258;2023-02-14T05:01:46;100351.19;;;5.36;58.08
64294;BME280;50636;45.596;5.258;2023-02-14T05:04:18;100343.25;;;5.37;58.04
64294;BME280;50636;45.596;5.258;2023-02-14T05:06:51;100358.19;;;5.35;58.33
64294;BME280;50636;45.596;5.258;2023-02-14T05:09:25;100357.72;;;5.30;57.75
64294;BME280;50636;45.596;5.258;2023-02-14T05:12:01;100357.13;;;5.27;58.46
64294;BME280;50636;45.596;5.258;2023-02-14T05:14:30;100357.97;;;5.27;58.40
64294;BME280;50636;45.596;5.258;2023-02-14T05:17:12;100351.59;;;5.20;58.65
64294;BME280;50636;45.596;5.258;2023-02-14T05:19:44;100357.63;;;5.20;58.51
64294;BME280;50636;45.596;5.258;2023-02-14T05:22:11;100356.00;;;5.19;58.82
64294;BME280;50636;45.596;5.258;2023-02-14T05:24:37;100356.00;;;5.19;58.06
64294;BME280;50636;45.596;5.258;2023-02-14T05:27:16;100361.09;;;5.10;58.17
64294;BME280;50636;45.596;5.258;2023-02-14T05:29:47;100360.41;;;5.08;58.95
64294;BME280;50636;45.596;5.258;2023-02-14T05:32:18;100354.38;;;5.07;58.60
64294;BME280;50636;45.596;5.258;2023-02-14T05:34:45;100366.09;;;5.02;58.46
64294;BME280;50636;45.596;5.258;2023-02-14T05:37:17;100362.41;;;5.04;58.66
64294;BME280;50636;45.596;5.258;2023-02-14T05:39:53;100363.63;;;5.00;58.70
64294;BME280;50636;45.596;5.258;2023-02-14T05:42:25;100369.63;;;5.00;58.71
64294;BME280;50636;45.596;5.258;2023-02-14T05:45:04;100361.25;;;4.97;58.25
64294;BME280;50636;45.596;5.258;2023-02-14T05:47:32;100372.16;;;4.91;58.34
64294;BME280;50636;45.596;5.258;2023-02-14T05:49:59;100369.81;;;4.88;58.90
64294;BME280;50636;45.596;5.258;2023-02-14T05:52:44;100370.63;;;4.88;58.33
64294;BME280;50636;45.596;5.258;2023-02-14T05:55:11;100372.19;;;4.79;58.28
64294;BME280;50636;45.596;5.258;2023-02-14T05:57:38;100369.69;;;4.78;59.07
64294;BME280;50636;45.596;5.258;2023-02-14T06:00:06;100368.72;;;4.90;59.28
64294;BME280;50636;45.596;5.258;2023-02-14T06:02:32;100369.53;;;4.91;58.58
64294;BME280;50636;45.596;5.258;2023-02-14T06:04:58;100367.81;;;4.80;58.72
64294;BME280;50636;45.596;5.258;2023-02-14T06:07:29;100368.63;;;4.80;59.67
64294;BME280;50636;45.596;5.258;2023-02-14T06:10:16;100360.97;;;4.79;59.44
64294;BME280;50636;45.596;5.258;2023-02-14T06:12:50;100364.28;;;4.81;59.53
64294;BME280;50636;45.596;5.258;2023-02-14T06:15:17;100360.97;;;4.79;59.05
64294;BME280;50636;45.596;5.258;2023-02-14T06:17:52;100366.66;;;4.73;60.21
64294;BME280;50636;45.596;5.258;2023-02-14T06:20:21;100359.50;;;4.86;60.79
64294;BME280;50636;45.596;5.258;2023-02-14T06:22:49;100363.59;;;5.11;60.57
64294;BME280;50636;45.596;5.258;2023-02-14T06:25:16;100361.59;;;5.36;59.80
64294;BME280;50636;45.596;5.258;2023-02-14T06:27:43;100351.88;;;5.38;58.91
64294;BME280;50636;45.596;5.258;2023-02-14T06:30:11;100358.88;;;5.37;58.84
64294;BME280;50636;45.596;5.258;2023-02-14T06:32:38;100362.41;;;5.36;58.67
64294;BME280;50636;45.596;5.258;2023-02-14T06:35:06;100364.09;;;5.37;58.45
64294;BME280;50636;45.596;5.258;2023-02-14T06:37:33;100366.22;;;5.32;58.42
64294;BME280;50636;45.596;5.258;2023-02-14T06:40:00;100366.41;;;5.19;58.58
64294;BME280;50636;45.596;5.258;2023-02-14T06:42:27;100363.72;;;5.10;58.61
64294;BME280;50636;45.596;5.258;2023-02-14T06:44:55;100368.69;;;5.02;58.10
64294;BME280;50636;45.596;5.258;2023-02-14T06:47:25;100375.34;;;4.94;58.59
64294;BME280;50636;45.596;5.258;2023-02-14T06:49:57;100379.00;;;4.92;58.73
64294;BME280;50636;45.596;5.258;2023-02-14T06:52:24;100380.22;;;4.88;59.35
64294;BME280;50636;45.596;5.258;2023-02-14T06:54:52;100378.63;;;4.96;59.92
64294;BME280;50636;45.596;5.258;2023-02-14T06:57:20;100379.75;;;5.15;58.48
64294;BME280;50636;45.596;5.258;2023-02-14T06:59:48;100383.81;;;5.40;58.03
64294;BME280;50636;45.596;5.258;2023-02-14T07:02:14;100390.22;;;5.68;57.48
64294;BME280;50636;45.596;5.258;2023-02-14T07:04:43;100382.13;;;5.92;56.72
64294;BME280;50636;45.596;5.258;2023-02-14T07:07:11;100383.78;;;6.14;55.97
64294;BME280;50636;45.596;5.258;2023-02-14T07:09:38;100377.47;;;6.38;54.38
64294;BME280;50636;45.596;5.258;2023-02-14T07:12:05;100387.03;;;6.78;54.82
64294;BME280;50636;45.596;5.258;2023-02-14T07:14:34;100387.28;;;7.35;53.80
64294;BME280;50636;45.596;5.258;2023-02-14T07:17:00;100375.09;;;7.92;52.41
64294;BME280;50636;45.596;5.258;2023-02-14T07:19:27;100384.78;;;8.29;50.37
64294;BME280;50636;45.596;5.258;2023-02-14T07:21:54;100381.84;;;8.32;49.74
64294;BME280;50636;45.596;5.258;2023-02-14T07:24:42;100379.09;;;8.44;49.41
64294;BME280;50636;45.596;5.258;2023-02-14T07:27:09;100377.13;;;8.55;49.08
64294;BME280;50636;45.596;5.258;2023-02-14T07:29:37;100382.50;;;8.82;48.97
64294;BME280;50636;45.596;5.258;2023-02-14T07:32:19;100379.97;;;9.08;48.13
64294;BME280;50636;45.596;5.258;2023-02-14T07:34:50;100378.94;;;9.36;47.45
64294;BME280;50636;45.596;5.258;2023-02-14T07:37:19;100382.03;;;9.76;46.91
64294;BME280;50636;45.596;5.258;2023-02-14T07:39:58;100375.28;;;9.99;46.03
64294;BME280;50636;45.596;5.258;2023-02-14T07:42:42;100376.41;;;10.23;45.77
64294;BME280;50636;45.596;5.258;2023-02-14T07:45:25;100370.88;;;10.61;44.85
64294;BME280;50636;45.596;5.258;2023-02-14T07:48:06;100376.28;;;10.59;44.23
64294;BME280;50636;45.596;5.258;2023-02-14T07:50:35;100373.13;;;10.55;44.34
64294;BME280;50636;45.596;5.258;2023-02-14T07:53:17;100376.44;;;9.97;44.85
64294;BME280;50636;45.596;5.258;2023-02-14T07:55:48;100380.47;;;9.47;46.33
64294;BME280;50636;45.596;5.258;2023-02-14T07:58:35;100379.31;;;9.68;46.79
64294;BME280;50636;45.596;5.258;2023-02-14T08:01:03;100378.28;;;9.78;46.93
64294;BME280;50636;45.596;5.258;2023-02-14T08:03:29;100368.44;;;10.07;45.91
64294;BME280;50636;45.596;5.258;2023-02-14T08:05:57;100371.13;;;10.15;46.02
64294;BME280;50636;45.596;5.258;2023-02-14T08:08:28;100376.25;;;10.25;45.63
64294;BME280;50636;45.596;5.258;2023-02-14T08:10:55;100368.66;;;10.48;45.44
64294;BME280;50636;45.596;5.258;2023-02-14T08:13:22;100368.63;;;10.82;45.40
64294;BME280;50636;45.596;5.258;2023-02-14T08:15:50;100367.91;;;11.31;45.07
64294;BME280;50636;45.596;5.258;2023-02-14T08:18:37;100371.50;;;11.71;43.16
64294;BME280;50636;45.596;5.258;2023-02-14T08:21:06;100366.03;;;12.05;42.93
64294;BME280;50636;45.596;5.258;2023-02-14T08:23:50;100363.03;;;12.25;42.54
64294;BME280;50636;45.596;5.258;2023-02-14T08:26:32;100357.63;;;12.57;41.48
64294;BME280;50636;45.596;5.258;2023-02-14T08:28:58;100354.50;;;12.85;40.46
64294;BME280;50636;45.596;5.258;2023-02-14T08:31:46;100356.41;;;12.99;40.85
64294;BME280;50636;45.596;5.258;2023-02-14T08:34:13;100358.47;;;13.12;40.50
64294;BME280;50636;45.596;5.258;2023-02-14T08:36:51;100359.06;;;13.46;39.30
64294;BME280;50636;45.596;5.258;2023-02-14T08:39:18;100358.91;;;13.62;38.72
64294;BME280;50636;45.596;5.258;2023-02-14T08:41:44;100352.06;;;14.06;38.29
64294;BME280;50636;45.596;5.258;2023-02-14T08:44:11;100348.94;;;14.47;37.92
64294;BME280;50636;45.596;5.258;2023-02-14T08:46:38;100351.63;;;15.48;36.29
64294;BME280;50636;45.596;5.258;2023-02-14T08:49:08;100350.09;;;15.82;35.15
64294;BME280;50636;45.596;5.258;2023-02-14T08:51:35;100347.00;;;16.54;34.32
64294;BME280;50636;45.596;5.258;2023-02-14T08:54:02;100344.72;;;17.46;32.70
64294;BME280;50636;45.596;5.258;2023-02-14T08:56:30;100333.34;;;18.31;31.57
64294;BME280;50636;45.596;5.258;2023-02-14T08:58:59;100331.06;;;18.86;30.62
64294;BME280;50636;45.596;5.258;2023-02-14T09:01:26;100334.81;;;19.10;30.50
64294;BME280;50636;45.596;5.258;2023-02-14T09:03:54;100332.53;;;18.75;29.75
64294;BME280;50636;45.596;5.258;2023-02-14T09:06:22;100340.84;;;17.89;30.42
64294;BME280;50636;45.596;5.258;2023-02-14T09:08:50;100335.31;;;17.50;31.41
64294;BME280;50636;45.596;5.258;2023-02-14T09:11:20;100334.50;;;17.50;31.42
64294;BME280;50636;45.596;5.258;2023-02-14T09:13:48;100339.41;;;17.66;31.18
64294;BME280;50636;45.596;5.258;2023-02-14T09:16:16;100335.72;;;17.94;30.96
64294;BME280;50636;45.596;5.258;2023-02-14T09:18:44;100338.56;;;18.06;30.20
64294;BME280;50636;45.596;5.258;2023-02-14T09:21:14;100334.38;;;18.30;29.95
64294;BME280;50636;45.596;5.258;2023-02-14T09:23:48;100326.03;;;18.20;30.03
64294;BME280;50636;45.596;5.258;2023-02-14T09:26:16;100333.56;;;18.29;29.95
64294;BME280;50636;45.596;5.258;2023-02-14T09:28:43;100321.88;;;18.37;29.46
64294;BME280;50636;45.596;5.258;2023-02-14T09:31:18;100324.97;;;18.34;29.82
64294;BME280;50636;45.596;5.258;2023-02-14T09:33:48;100326.53;;;17.56;31.09
64294;BME280;50636;45.596;5.258;2023-02-14T09:36:33;100326.72;;;16.88;31.35
64294;BME280;50636;45.596;5.258;2023-02-14T09:39:20;100329.22;;;16.00;32.65
64294;BME280;50636;45.596;5.258;2023-02-14T09:50:38;100323.28;;;15.98;34.66
64294;BME280;50636;45.596;5.258;2023-02-14T09:53:35;100323.69;;;17.11;32.03
64294;BME280;50636;45.596;5.258;2023-02-14T09:59:30;100310.66;;;18.28;30.60
64294;BME280;50636;45.596;5.258;2023-02-14T10:05:48;100308.97;;;18.86;29.52
64294;BME280;50636;45.596;5.258;2023-02-14T10:08:43;100308.19;;;19.10;28.84
64294;BME280;50636;45.596;5.258;2023-02-14T10:11:22;100313.44;;;18.53;30.40
64294;BME280;50636;45.596;5.258;2023-02-14T10:14:13;100308.22;;;18.27;33.16
64294;BME280;50636;45.596;5.258;2023-02-14T10:17:05;100305.50;;;18.40;31.51
64294;BME280;50636;45.596;5.258;2023-02-14T10:28:56;100296.47;;;19.18;30.49
64294;BME280;50636;45.596;5.258;2023-02-14T10:31:26;100291.38;;;20.94;28.01
64294;BME280;50636;45.596;5.258;2023-02-14T10:43:22;100266.25;;;23.95;22.88
64294;BME280;50636;45.596;5.258;2023-02-14T10:57:05;100258.16;;;23.33;23.16
64294;BME280;50636;45.596;5.258;2023-02-14T11:00:00;100257.66;;;22.69;24.03
64294;BME280;50636;45.596;5.258;2023-02-14T11:02:42;100252.75;;;22.32;24.23
64294;BME280;50636;45.596;5.258;2023-02-14T11:05:49;100240.97;;;22.21;24.25
64294;BME280;50636;45.596;5.258;2023-02-14T11:08:42;100240.41;;;22.77;24.97
64294;BME280;50636;45.596;5.258;2023-02-14T11:11:37;100232.31;;;23.83;23.00
64294;BME280;50636;45.596;5.258;2023-02-14T11:14:44;100232.28;;;24.55;22.51
64294;BME280;50636;45.596;5.258;2023-02-14T11:17:43;100232.06;;;25.31;22.20
64294;BME280;50636;45.596;5.258;2023-02-14T11:20:25;100222.91;;;25.80;21.38
64294;BME280;50636;45.596;5.258;2023-02-14T11:23:27;100209.59;;;26.31;20.56
64294;BME280;50636;45.596;5.258;2023-02-14T11:25:57;100210.69;;;26.56;19.64
64294;BME280;50636;45.596;5.258;2023-02-14T11:28:25;100207.50;;;26.79;18.28
64294;BME280;50636;45.596;5.258;2023-02-14T11:30:55;100202.91;;;26.75;19.14
64294;BME280;50636;45.596;5.258;2023-02-14T11:33:27;100206.38;;;26.55;18.85
64294;BME280;50636;45.596;5.258;2023-02-14T11:36:13;100196.19;;;26.82;17.59
64294;BME280;50636;45.596;5.258;2023-02-14T11:38:44;100201.28;;;26.84;17.73
64294;BME280;50636;45.596;5.258;2023-02-14T11:41:13;100198.00;;;27.02;18.00
64294;BME280;50636;45.596;5.258;2023-02-14T11:43:43;100185.13;;;26.89;18.02
64294;BME280;50636;45.596;5.258;2023-02-14T11:49:01;100181.78;;;27.38;17.61
64294;BME280;50636;45.596;5.258;2023-02-14T11:51:42;100178.81;;;27.40;17.75
64294;BME280;50636;45.596;5.258;2023-02-14T11:54:32;100179.50;;;26.65;18.87
64294;BME280;50636;45.596;5.258;2023-02-14T11:57:11;100173.00;;;26.40;19.67
64294;BME280;50636;45.596;5.258;2023-02-14T11:59:47;100175.41;;;26.06;19.80
64294;BME280;50636;45.596;5.258;2023-02-14T12:02:29;100164.88;;;25.94;20.02
64294;BME280;50636;45.596;5.258;2023-02-14T12:05:32;100165.13;;;25.93;19.47
64294;BME280;50636;45.596;5.258;2023-02-14T12:08:04;100164.09;;;26.09;18.12
64294;BME280;50636;45.596;5.258;2023-02-14T12:17:29;100156.16;;;25.66;19.54
64294;BME280;50636;45.596;5.258;2023-02-14T12:26:37;100151.44;;;26.09;18.47
64294;BME280;50636;45.596;5.258;2023-02-14T12:32:29;100134.22;;;25.90;19.40
64294;BME280;50636;45.596;5.258;2023-02-14T12:35:13;100130.47;;;26.06;18.76
64294;BME280;50636;45.596;5.258;2023-02-14T12:58:36;100089.81;;;26.49;18.19
64294;BME280;50636;45.596;5.258;2023-02-14T13:06:58;100079.97;;;25.30;19.08
64294;BME280;50636;45.596;5.258;2023-02-14T13:15:36;100066.63;;;25.66;18.53
64294;BME280;50636;45.596;5.258;2023-02-14T13:20:53;100046.28;;;25.12;19.38
64294;BME280;50636;45.596;5.258;2023-02-14T13:23:41;100051.03;;;24.95;20.01
64294;BME280;50636;45.596;5.258;2023-02-14T13:26:19;100050.59;;;25.18;20.25
64294;BME280;50636;45.596;5.258;2023-02-14T13:29:10;100039.69;;;25.45;20.46
64294;BME280;50636;45.596;5.258;2023-02-14T13:31:40;100044.50;;;25.33;19.58
64294;BME280;50636;45.596;5.258;2023-02-14T13:34:42;100038.44;;;24.95;19.96
64294;BME280;50636;45.596;5.258;2023-02-14T13:37:12;100027.63;;;24.37;20.47
64294;BME280;50636;45.596;5.258;2023-02-14T13:39:45;100025.38;;;24.24;20.65
64294;BME280;50636;45.596;5.258;2023-02-14T13:48:16;100013.81;;;23.81;21.29
64294;BME280;50636;45.596;5.258;2023-02-14T13:51:01;100007.22;;;23.66;21.79
64294;BME280;50636;45.596;5.258;2023-02-14T13:55:57;100011.94;;;23.86;20.92
64294;BME280;50636;45.596;5.258;2023-02-14T13:58:25;99998.81;;;23.58;21.08
64294;BME280;50636;45.596;5.258;2023-02-14T14:00:54;100001.22;;;23.32;21.38
64294;BME280;50636;45.596;5.258;2023-02-14T14:06:09;99997.94;;;22.59;22.38
64294;BME280;50636;45.596;5.258;2023-02-14T14:08:46;99993.75;;;22.29;22.44
64294;BME280;50636;45.596;5.258;2023-02-14T14:19:09;99987.63;;;21.49;23.30
64294;BME280;50636;45.596;5.258;2023-02-14T14:22:00;99991.06;;;21.32;23.42
64294;BME280;50636;45.596;5.258;2023-02-14T14:24:33;99988.22;;;21.10;23.53
64294;BME280;50636;45.596;5.258;2023-02-14T14:27:41;99984.81;;;20.86;23.42
64294;BME280;50636;45.596;5.258;2023-02-14T14:30:23;99996.00;;;20.71;23.08
64294;BME280;50636;45.596;5.258;2023-02-14T14:32:51;99994.41;;;20.59;23.53
64294;BME280;50636;45.596;5.258;2023-02-14T14:35:21;99988.13;;;20.53;23.76
64294;BME280;50636;45.596;5.258;2023-02-14T14:37:57;99986.97;;;20.49;23.41
64294;BME280;50636;45.596;5.258;2023-02-14T14:40:27;99995.88;;;20.31;23.52
64294;BME280;50636;45.596;5.258;2023-02-14T14:45:58;99986.81;;;19.85;24.35
64294;BME280;50636;45.596;5.258;2023-02-14T14:50:59;99968.72;;;19.75;24.46
64294;BME280;50636;45.596;5.258;2023-02-14T14:53:31;99974.78;;;19.82;24.33
64294;BME280;50636;45.596;5.258;2023-02-14T14:56:09;99973.69;;;19.71;24.59
64294;BME280;50636;45.596;5.258;2023-02-14T14:58:41;99976.72;;;19.75;24.83
64294;BME280;50636;45.596;5.258;2023-02-14T15:01:12;99971.84;;;19.72;24.99
64294;BME280;50636;45.596;5.258;2023-02-14T15:07:27;99967.59;;;19.52;24.17
64294;BME280;50636;45.596;5.258;2023-02-14T15:10:18;99975.56;;;19.41;24.33
64294;BME280;50636;45.596;5.258;2023-02-14T15:12:46;99966.44;;;19.18;25.48
64294;BME280;50636;45.596;5.258;2023-02-14T15:15:31;99961.16;;;19.00;25.45
64294;BME280;50636;45.596;5.258;2023-02-14T15:17:58;99971.44;;;18.96;25.62
64294;BME280;50636;45.596;5.258;2023-02-14T15:20:25;99961.91;;;18.88;25.60
64294;BME280;50636;45.596;5.258;2023-02-14T15:22:53;99956.59;;;18.88;25.41
64294;BME280;50636;45.596;5.258;2023-02-14T15:25:25;99961.91;;;18.88;25.88
64294;BME280;50636;45.596;5.258;2023-02-14T15:27:58;99967.00;;;18.90;26.11
64294;BME280;50636;45.596;5.258;2023-02-14T15:30:31;99956.28;;;18.96;25.67
64294;BME280;50636;45.596;5.258;2023-02-14T15:33:01;99951.69;;;18.85;25.48
64294;BME280;50636;45.596;5.258;2023-02-14T15:35:39;99947.47;;;18.77;25.75
64294;BME280;50636;45.596;5.258;2023-02-14T15:38:09;99950.50;;;18.63;26.08
64294;BME280;50636;45.596;5.258;2023-02-14T15:40:38;99949.63;;;18.50;26.77
64294;BME280;50636;45.596;5.258;2023-02-14T15:43:28;99953.47;;;18.54;26.95
64294;BME280;50636;45.596;5.258;2023-02-14T15:46:39;99953.47;;;18.54;26.77
64294;BME280;50636;45.596;5.258;2023-02-14T15:49:41;99950.66;;;18.49;26.75
64294;BME280;50636;45.596;5.258;2023-02-14T15:52:27;99942.44;;;18.51;26.86
64294;BME280;50636;45.596;5.258;2023-02-14T15:54:55;99941.81;;;18.55;27.06
64294;BME280;50636;45.596;5.258;2023-02-14T15:57:35;99945.41;;;18.61;27.02
64294;BME280;50636;45.596;5.258;2023-02-14T16:00:19;99952.81;;;18.77;26.85
64294;BME280;50636;45.596;5.258;2023-02-14T16:03:07;99946.59;;;19.02;26.58
64294;BME280;50636;45.596;5.258;2023-02-14T16:06:33;99944.59;;;18.98;26.97
64294;BME280;50636;45.596;5.258;2023-02-14T16:12:35;99937.88;;;18.76;27.16
64294;BME280;50636;45.596;5.258;2023-02-14T16:15:29;99942.91;;;18.66;27.36
64294;BME280;50636;45.596;5.258;2023-02-14T16:21:28;99940.59;;;18.33;27.78
64294;BME280;50636;45.596;5.258;2023-02-14T16:24:28;99941.16;;;18.16;28.21
64294;BME280;50636;45.596;5.258;2023-02-14T16:26:56;99942.91;;;18.04;28.53
64294;BME280;50636;45.596;5.258;2023-02-14T16:29:23;99942.44;;;17.89;28.81
64294;BME280;50636;45.596;5.258;2023-02-14T16:31:53;99941.25;;;17.78;29.17
64294;BME280;50636;45.596;5.258;2023-02-14T16:34:21;99935.84;;;17.66;29.34
64294;BME280;50636;45.596;5.258;2023-02-14T16:36:49;99941.06;;;17.48;29.55
64294;BME280;50636;45.596;5.258;2023-02-14T16:39:19;99948.09;;;17.35;29.91
64294;BME280;50636;45.596;5.258;2023-02-14T16:41:49;99947.16;;;17.23;30.22
64294;BME280;50636;45.596;5.258;2023-02-14T16:44:18;99946.00;;;17.06;30.49
64294;BME280;50636;45.596;5.258;2023-02-14T16:46:46;99945.47;;;16.90;30.90
64294;BME280;50636;45.596;5.258;2023-02-14T16:49:13;99939.16;;;16.78;31.15
64294;BME280;50636;45.596;5.258;2023-02-14T16:51:58;99940.00;;;16.72;31.55
64294;BME280;50636;45.596;5.258;2023-02-14T16:54:30;99943.91;;;16.63;31.92
64294;BME280;50636;45.596;5.258;2023-02-14T16:57:22;99947.03;;;16.46;32.00
64294;BME280;50636;45.596;5.258;2023-02-14T16:59:57;99947.88;;;16.27;32.47